createdAt,value
2023-05-05T00:02:24.519Z,13.78
2023-05-05T00:04:51.006Z,13.79
2023-05-05T00:07:17.409Z,13.78
2023-05-05T00:09:43.916Z,13.75
2023-05-05T00:12:10.347Z,13.67
2023-05-05T00:14:36.777Z,13.65
2023-05-05T00:17:04.044Z,13.62
2023-05-05T00:19:30.552Z,13.60
2023-05-05T00:21:56.957Z,13.60
2023-05-05T00:24:23.551Z,13.60
2023-05-05T00:26:50.028Z,13.58
2023-05-05T00:29:16.529Z,13.50
2023-05-05T00:31:43.116Z,13.51
2023-05-05T00:34:09.605Z,13.54
2023-05-05T00:36:36.147Z,13.52
2023-05-05T00:39:02.956Z,13.45
2023-05-05T00:41:29.417Z,13.45
2023-05-05T00:43:55.839Z,13.46
2023-05-05T00:46:29.262Z,13.45
2023-05-05T00:48:56.329Z,13.46
2023-05-05T00:51:24.370Z,13.45
2023-05-05T00:53:51.256Z,13.44
2023-05-05T00:56:19.700Z,13.44
2023-05-05T00:58:46.803Z,13.43
2023-05-05T01:01:13.662Z,13.37
2023-05-05T01:03:41.577Z,13.34
2023-05-05T01:06:26.209Z,13.33
2023-05-05T01:09:06.667Z,13.38
2023-05-05T01:11:51.321Z,13.34
2023-05-05T01:14:23.471Z,13.28
2023-05-05T01:17:10.361Z,13.24
2023-05-05T01:19:55.560Z,13.20
2023-05-05T01:22:27.519Z,13.19
2023-05-05T01:25:12.352Z,13.17
2023-05-05T01:27:55.664Z,13.11
2023-05-05T01:30:52.969Z,13.13
2023-05-05T01:33:26.064Z,13.09
2023-05-05T01:35:56.049Z,13.05
2023-05-05T01:38:27.568Z,12.97
2023-05-05T01:41:13.534Z,12.92
2023-05-05T01:43:43.792Z,12.93
2023-05-05T01:46:13.209Z,12.90
2023-05-05T01:48:43.078Z,12.80
2023-05-05T01:51:11.611Z,12.76
2023-05-05T01:53:39.536Z,12.75
2023-05-05T01:56:08.226Z,12.81
2023-05-05T01:58:36.342Z,12.78
2023-05-05T02:01:04.475Z,12.70
2023-05-05T02:03:33.938Z,12.68
2023-05-05T02:06:01.500Z,12.66
2023-05-05T02:08:31.203Z,12.66
2023-05-05T02:10:58.199Z,12.67
2023-05-05T02:13:26.142Z,12.68
2023-05-05T02:15:53.341Z,12.69
2023-05-05T02:18:22.803Z,12.67
2023-05-05T02:20:50.056Z,12.66
2023-05-05T02:23:16.601Z,12.66
2023-05-05T02:25:49.285Z,12.66
2023-05-05T02:28:21.062Z,12.68
2023-05-05T02:30:57.526Z,12.69
2023-05-05T02:33:27.359Z,12.67
2023-05-05T02:35:57.236Z,12.69
2023-05-05T02:38:28.676Z,12.62
2023-05-05T02:41:01.532Z,12.61
2023-05-05T02:43:31.934Z,12.60
2023-05-05T02:45:58.989Z,12.53
2023-05-05T02:48:29.606Z,12.48
2023-05-05T02:50:59.872Z,12.50
2023-05-05T02:53:35.964Z,12.46
2023-05-05T02:56:27.105Z,12.48
2023-05-05T02:59:15.276Z,12.56
2023-05-05T03:02:15.667Z,12.52
2023-05-05T03:04:46.985Z,12.49
2023-05-05T03:07:20.542Z,12.45
2023-05-05T03:10:08.542Z,12.48
2023-05-05T03:12:52.718Z,12.54
2023-05-05T03:15:35.923Z,12.53
2023-05-05T03:18:03.841Z,12.45
2023-05-05T03:20:31.134Z,12.40
2023-05-05T03:23:02.861Z,12.45
2023-05-05T03:25:50.094Z,12.42
2023-05-05T03:28:26.696Z,12.44
2023-05-05T03:30:54.396Z,12.47
2023-05-05T03:33:21.349Z,12.51
2023-05-05T03:35:47.954Z,12.41
2023-05-05T03:38:14.474Z,12.37
2023-05-05T03:40:44.651Z,12.33
2023-05-05T03:43:14.021Z,12.32
2023-05-05T03:45:40.610Z,12.31
2023-05-05T03:48:07.265Z,12.31
2023-05-05T03:50:33.785Z,12.26
2023-05-05T03:53:00.592Z,12.26
2023-05-05T03:55:27.061Z,12.25
2023-05-05T03:57:53.480Z,12.24
2023-05-05T04:00:19.961Z,12.23
2023-05-05T04:02:46.558Z,12.21
2023-05-05T04:05:16.075Z,12.30
2023-05-05T04:07:43.299Z,12.29
2023-05-05T04:10:10.327Z,12.30
2023-05-05T04:12:37.518Z,12.33
2023-05-05T04:15:04.542Z,12.37
2023-05-05T04:17:31.142Z,12.42
2023-05-05T04:19:58.196Z,12.42
2023-05-05T04:22:24.655Z,12.43
2023-05-05T04:24:51.652Z,12.41
2023-05-05T04:27:18.113Z,12.47
2023-05-05T04:29:44.637Z,12.52
2023-05-05T04:32:11.230Z,12.56
2023-05-05T04:34:37.719Z,12.63
2023-05-05T04:37:04.756Z,12.68
2023-05-05T04:39:31.326Z,12.70
2023-05-05T04:41:58.528Z,12.72
2023-05-05T04:44:25.071Z,12.73
2023-05-05T04:46:51.601Z,12.77
2023-05-05T04:49:18.196Z,12.74
2023-05-05T04:51:45.263Z,12.77
2023-05-05T04:54:11.837Z,12.83
2023-05-05T04:56:38.313Z,12.85
2023-05-05T04:59:04.812Z,12.88
2023-05-05T05:01:31.712Z,12.91
2023-05-05T05:03:58.569Z,12.95
2023-05-05T05:06:25.114Z,12.97
2023-05-05T05:08:52.349Z,13.07
2023-05-05T05:11:18.835Z,13.12
2023-05-05T05:13:46.207Z,13.13
2023-05-05T05:16:12.801Z,13.16
2023-05-05T05:18:39.277Z,13.20
2023-05-05T05:21:06.220Z,13.27
2023-05-05T05:23:33.084Z,13.30
2023-05-05T05:25:59.762Z,13.34
2023-05-05T05:28:26.692Z,13.35
2023-05-05T05:30:57.577Z,13.37
2023-05-05T05:33:24.086Z,13.40
2023-05-05T05:35:52.274Z,13.48
2023-05-05T05:38:20.562Z,13.52
2023-05-05T05:40:48.677Z,13.57
2023-05-05T05:43:15.329Z,13.63
2023-05-05T05:45:41.914Z,13.73
2023-05-05T05:48:08.669Z,13.82
2023-05-05T05:50:35.850Z,13.91
2023-05-05T05:53:02.529Z,13.93
2023-05-05T05:55:29.580Z,13.92
2023-05-05T05:57:56.371Z,13.93
2023-05-05T06:00:22.966Z,13.85
2023-05-05T06:02:56.591Z,13.85
2023-05-05T06:05:26.902Z,13.79
2023-05-05T06:07:53.853Z,13.75
2023-05-05T06:10:28.078Z,13.73
2023-05-05T06:13:01.350Z,13.68
2023-05-05T06:15:28.564Z,13.70
2023-05-05T06:17:55.558Z,13.75
2023-05-05T06:20:22.812Z,13.72
2023-05-05T06:22:49.524Z,13.67
2023-05-05T06:25:17.287Z,13.72
2023-05-05T06:27:44.585Z,13.68
2023-05-05T06:30:11.795Z,13.65
2023-05-05T06:32:38.232Z,13.61
2023-05-05T06:35:05.095Z,13.64
2023-05-05T06:37:31.489Z,13.65
2023-05-05T06:39:57.989Z,13.68
2023-05-05T06:42:24.471Z,13.69
2023-05-05T06:44:52.522Z,13.75
2023-05-05T06:47:18.986Z,13.76
2023-05-05T06:49:45.386Z,13.78
2023-05-05T06:52:12.583Z,13.76
2023-05-05T06:54:39.025Z,13.83
2023-05-05T06:57:05.736Z,13.93
2023-05-05T06:59:32.453Z,14.01
2023-05-05T07:01:59.457Z,14.08
2023-05-05T07:04:26.721Z,14.16
2023-05-05T07:06:55.112Z,14.27
2023-05-05T07:09:21.572Z,14.38
2023-05-05T07:11:47.954Z,14.47
2023-05-05T07:14:14.391Z,14.51
2023-05-05T07:16:40.855Z,14.65
2023-05-05T07:19:07.430Z,14.75
2023-05-05T07:21:34.179Z,14.99
2023-05-05T07:24:01.806Z,15.09
2023-05-05T07:26:28.345Z,15.25
2023-05-05T07:28:58.726Z,15.33
2023-05-05T07:31:26.412Z,15.40
2023-05-05T07:33:52.961Z,15.51
2023-05-05T07:36:19.543Z,15.65
2023-05-05T07:38:46.068Z,15.62
2023-05-05T07:41:12.979Z,15.74
2023-05-05T07:43:44.506Z,15.85
2023-05-05T07:46:11.516Z,15.93
2023-05-05T07:48:41.462Z,16.11
2023-05-05T07:51:08.884Z,16.22
2023-05-05T07:53:35.328Z,16.39
2023-05-05T07:56:01.915Z,16.46
2023-05-05T07:58:28.423Z,16.62
2023-05-05T08:00:54.916Z,16.80
2023-05-05T08:03:24.322Z,16.86
2023-05-05T08:05:54.458Z,16.92
2023-05-05T08:08:24.372Z,17.08
2023-05-05T08:10:51.883Z,17.27
2023-05-05T08:13:18.440Z,17.44
2023-05-05T08:15:45.323Z,17.60
2023-05-05T08:18:11.849Z,17.79
2023-05-05T08:20:38.310Z,17.89
2023-05-05T08:23:05.061Z,17.77
2023-05-05T08:25:31.590Z,17.71
2023-05-05T08:27:58.028Z,17.60
2023-05-05T08:30:24.514Z,17.62
2023-05-05T08:32:51.044Z,17.63
2023-05-05T08:35:17.641Z,17.67
2023-05-05T08:37:44.193Z,17.63
2023-05-05T08:40:14.361Z,17.70
2023-05-05T08:42:42.013Z,17.71
2023-05-05T08:45:09.948Z,17.82
2023-05-05T08:47:37.904Z,17.66
2023-05-05T08:50:08.066Z,17.49
2023-05-05T08:52:43.991Z,17.47
2023-05-05T08:55:15.409Z,17.45
2023-05-05T08:57:50.325Z,17.54
2023-05-05T09:00:18.824Z,17.47
2023-05-05T09:02:46.480Z,17.39
2023-05-05T09:05:13.509Z,17.37
2023-05-05T09:07:43.858Z,17.26
2023-05-05T09:10:12.297Z,17.39
2023-05-05T09:12:42.502Z,17.57
2023-05-05T09:15:14.290Z,17.87
2023-05-05T09:17:41.977Z,18.09
2023-05-05T09:20:10.468Z,18.39
2023-05-05T09:22:41.998Z,18.68
2023-05-05T09:25:13.423Z,18.85
2023-05-05T09:27:49.334Z,19.01
2023-05-05T09:30:23.879Z,19.21
2023-05-05T09:32:52.925Z,19.26
2023-05-05T09:35:20.712Z,19.46
2023-05-05T09:37:47.824Z,19.59
2023-05-05T09:40:17.061Z,19.49
2023-05-05T09:42:44.663Z,19.73
2023-05-05T09:45:17.152Z,19.84
2023-05-05T09:47:45.702Z,19.90
2023-05-05T09:50:15.861Z,19.94
2023-05-05T09:52:45.799Z,20.24
2023-05-05T09:55:19.410Z,20.30
2023-05-05T09:57:47.297Z,20.28
2023-05-05T10:00:14.697Z,20.56
2023-05-05T10:02:41.875Z,20.54
2023-05-05T10:05:12.728Z,20.55
2023-05-05T10:07:41.281Z,20.50
2023-05-05T10:10:16.092Z,20.76
2023-05-05T10:12:43.433Z,20.73
2023-05-05T10:15:11.542Z,20.88
2023-05-05T10:18:05.386Z,21.05
2023-05-05T10:20:36.247Z,21.27
2023-05-05T10:23:06.535Z,21.47
2023-05-05T10:25:45.645Z,21.38
2023-05-05T10:28:19.628Z,21.19
2023-05-05T10:30:51.159Z,21.29
2023-05-05T10:33:32.256Z,21.36
2023-05-05T10:36:02.333Z,21.24
2023-05-05T10:38:30.693Z,21.43
2023-05-05T10:40:59.632Z,21.72
2023-05-05T10:43:27.503Z,21.84
2023-05-05T10:45:54.744Z,22.20
2023-05-05T10:48:30.703Z,22.39
2023-05-05T10:51:31.445Z,22.10
2023-05-05T10:54:16.961Z,21.89
2023-05-05T10:56:43.740Z,21.52
2023-05-05T10:59:38.701Z,21.58
2023-05-05T11:02:28.713Z,21.48
2023-05-05T11:05:23.530Z,21.35
2023-05-05T11:07:51.498Z,21.15
2023-05-05T11:10:20.530Z,21.26
2023-05-05T11:13:01.890Z,21.27
2023-05-05T11:15:28.636Z,21.22
2023-05-05T11:17:57.144Z,21.31
2023-05-05T11:20:39.686Z,21.37
2023-05-05T11:23:06.265Z,21.38
2023-05-05T11:25:40.595Z,21.40
2023-05-05T11:28:08.851Z,21.49
2023-05-05T11:30:59.703Z,21.64
2023-05-05T11:33:31.457Z,21.69
2023-05-05T11:36:05.738Z,21.78
2023-05-05T11:38:35.940Z,21.76
2023-05-05T11:41:16.531Z,21.84
2023-05-05T11:43:43.288Z,21.58
2023-05-05T11:46:14.244Z,21.48
2023-05-05T11:48:58.530Z,21.05
2023-05-05T11:51:25.615Z,20.75
2023-05-05T11:53:52.561Z,20.76
2023-05-05T11:56:20.497Z,20.87
2023-05-05T11:58:47.866Z,21.30
2023-05-05T12:01:14.906Z,21.56
2023-05-05T12:03:41.642Z,21.72
2023-05-05T12:06:08.616Z,21.69
2023-05-05T12:08:39.530Z,21.44
2023-05-05T12:11:11.024Z,21.49
2023-05-05T12:13:37.458Z,21.81
2023-05-05T12:16:15.225Z,21.78
2023-05-05T12:18:42.484Z,21.83
2023-05-05T12:21:19.204Z,21.72
2023-05-05T12:23:46.040Z,21.48
2023-05-05T12:26:26.127Z,21.23
2023-05-05T12:28:52.617Z,21.25
2023-05-05T12:31:19.916Z,21.42
2023-05-05T12:33:47.201Z,21.90
2023-05-05T12:36:14.174Z,22.43
2023-05-05T12:38:41.865Z,22.47
2023-05-05T12:41:08.300Z,22.66
2023-05-05T12:43:35.438Z,22.86
2023-05-05T12:46:04.515Z,22.87
2023-05-05T12:48:31.551Z,23.50
2023-05-05T12:51:11.443Z,23.81
2023-05-05T12:53:37.924Z,23.77
2023-05-05T12:56:04.714Z,23.86
2023-05-05T12:58:48.513Z,24.48
2023-05-05T13:01:14.984Z,24.97
2023-05-05T13:03:41.760Z,25.23
2023-05-05T13:06:21.758Z,26.26
2023-05-05T13:08:48.206Z,28.53
2023-05-05T13:11:14.694Z,31.76
2023-05-05T13:13:42.083Z,33.30
2023-05-05T13:16:08.608Z,34.67
2023-05-05T13:18:48.313Z,34.67
2023-05-05T13:21:14.948Z,30.82
2023-05-05T13:23:47.248Z,28.94
2023-05-05T13:26:14.105Z,28.05
2023-05-05T13:28:41.173Z,27.24
2023-05-05T13:31:07.950Z,26.47
2023-05-05T13:33:34.862Z,26.16
2023-05-05T13:36:04.634Z,25.59
2023-05-05T13:38:34.386Z,25.06
2023-05-05T13:41:00.906Z,24.76
2023-05-05T13:43:27.315Z,24.51
2023-05-05T13:45:53.724Z,24.03
2023-05-05T13:48:20.763Z,23.82
2023-05-05T13:50:47.264Z,23.77
2023-05-05T13:53:14.083Z,23.71
2023-05-05T13:55:41.981Z,23.29
2023-05-05T13:58:08.708Z,22.99
2023-05-05T14:00:35.472Z,22.84
2023-05-05T14:03:02.261Z,22.75
2023-05-05T14:05:28.726Z,22.45
2023-05-05T14:07:55.475Z,22.06
2023-05-05T14:10:21.958Z,21.83
2023-05-05T14:12:48.417Z,21.71
2023-05-05T14:15:14.837Z,21.56
2023-05-05T14:17:41.311Z,21.40
2023-05-05T14:20:08.314Z,21.25
2023-05-05T14:22:34.733Z,21.07
2023-05-05T14:25:01.163Z,20.95
2023-05-05T14:27:27.627Z,20.86
2023-05-05T14:29:54.208Z,20.77
2023-05-05T14:32:20.673Z,20.64
2023-05-05T14:34:49.623Z,20.62
2023-05-05T14:37:16.885Z,20.58
2023-05-05T14:39:43.310Z,20.52
2023-05-05T14:42:10.919Z,20.40
2023-05-05T14:44:37.369Z,20.23
2023-05-05T14:47:03.765Z,20.02
2023-05-05T14:49:30.239Z,19.96
2023-05-05T14:51:56.864Z,19.88
2023-05-05T14:54:28.448Z,19.67
2023-05-05T14:56:55.869Z,19.52
2023-05-05T14:59:22.400Z,19.44
2023-05-05T15:01:48.835Z,19.27
2023-05-05T15:04:15.901Z,19.00
2023-05-05T15:06:42.363Z,18.62
2023-05-05T15:09:08.823Z,18.37
2023-05-05T15:11:35.269Z,18.14
2023-05-05T15:14:01.709Z,17.66
2023-05-05T15:16:28.230Z,17.12
2023-05-05T15:18:54.748Z,16.45
2023-05-05T15:21:21.161Z,15.55
2023-05-05T15:23:47.588Z,14.93
2023-05-05T15:26:14.037Z,13.49
2023-05-05T15:28:41.102Z,13.72
2023-05-05T15:31:07.529Z,13.65
2023-05-05T15:33:34.744Z,13.65
2023-05-05T15:36:01.344Z,13.80
2023-05-05T15:38:29.022Z,13.90
2023-05-05T15:40:55.657Z,13.92
2023-05-05T15:43:22.080Z,13.88
2023-05-05T15:45:48.489Z,13.97
2023-05-05T15:48:14.875Z,13.92
2023-05-05T15:50:41.299Z,13.84
2023-05-05T15:53:07.728Z,14.02
2023-05-05T15:55:34.168Z,14.07
2023-05-05T15:58:00.945Z,14.13
2023-05-05T16:00:28.088Z,13.96
2023-05-05T16:02:54.592Z,13.94
2023-05-05T16:05:22.990Z,14.04
2023-05-05T16:07:49.747Z,14.25
2023-05-05T16:10:17.487Z,14.64
2023-05-05T16:12:43.921Z,15.34
2023-05-05T16:15:11.166Z,15.78
2023-05-05T16:17:38.085Z,16.11
2023-05-05T16:20:05.037Z,16.19
2023-05-05T16:22:31.577Z,16.20
2023-05-05T16:24:57.983Z,16.24
2023-05-05T16:27:24.590Z,16.57
2023-05-05T16:29:51.214Z,17.35
2023-05-05T16:32:17.653Z,18.20
2023-05-05T16:34:44.274Z,20.16
2023-05-05T16:37:10.845Z,19.50
2023-05-05T16:39:40.133Z,18.93
2023-05-05T16:42:06.895Z,18.34
2023-05-05T16:44:33.331Z,18.00
2023-05-05T16:46:59.769Z,18.85
2023-05-05T16:49:26.197Z,20.85
2023-05-05T16:51:53.400Z,20.72
2023-05-05T16:54:19.869Z,21.32
2023-05-05T16:56:46.405Z,22.77
2023-05-05T16:59:12.958Z,23.96
2023-05-05T17:01:39.392Z,24.60
2023-05-05T17:04:05.921Z,24.39
2023-05-05T17:06:33.010Z,24.56
2023-05-05T17:09:00.201Z,24.42
2023-05-05T17:11:26.717Z,24.20
2023-05-05T17:13:53.159Z,24.13
2023-05-05T17:16:19.635Z,23.75
2023-05-05T17:18:46.114Z,23.37
2023-05-05T17:21:12.558Z,22.90
2023-05-05T17:23:38.944Z,22.69
2023-05-05T17:26:05.424Z,22.46
2023-05-05T17:28:31.836Z,22.08
2023-05-05T17:30:59.873Z,21.65
2023-05-05T17:33:26.366Z,21.21
2023-05-05T17:35:52.838Z,21.10
2023-05-05T17:38:19.298Z,20.89
2023-05-05T17:40:45.737Z,20.94
2023-05-05T17:43:12.125Z,20.85
2023-05-05T17:45:38.601Z,20.60
2023-05-05T17:48:05.478Z,20.61
2023-05-05T17:50:31.901Z,20.61
2023-05-05T17:52:58.350Z,20.40
2023-05-05T17:55:24.779Z,20.19
2023-05-05T17:57:51.252Z,19.80
2023-05-05T18:00:18.264Z,19.77
2023-05-05T18:02:45.208Z,19.69
2023-05-05T18:05:11.952Z,19.47
2023-05-05T18:07:38.729Z,19.12
2023-05-05T18:10:07.020Z,18.72
2023-05-05T18:12:33.601Z,18.46
2023-05-05T18:15:01.477Z,18.24
2023-05-05T18:17:27.868Z,18.02
2023-05-05T18:19:54.456Z,17.78
2023-05-05T18:22:21.732Z,17.55
2023-05-05T18:24:48.190Z,17.32
2023-05-05T18:27:15.475Z,17.17
2023-05-05T18:29:41.929Z,17.07
2023-05-05T18:32:08.343Z,16.83
2023-05-05T18:34:34.801Z,16.53
2023-05-05T18:37:02.311Z,16.32
2023-05-05T18:39:28.707Z,16.18
2023-05-05T18:41:55.348Z,16.08
2023-05-05T18:44:21.755Z,15.91
2023-05-05T18:46:48.269Z,15.73
2023-05-05T18:49:15.247Z,15.51
2023-05-05T18:51:41.728Z,15.40
2023-05-05T18:54:08.154Z,15.28
2023-05-05T18:56:34.721Z,15.08
2023-05-05T18:59:01.128Z,15.01
2023-05-05T19:01:27.592Z,14.91
2023-05-05T19:03:54.105Z,14.85
2023-05-05T19:06:20.586Z,14.82
2023-05-05T19:08:47.069Z,14.80
2023-05-05T19:11:15.060Z,14.78
2023-05-05T19:13:42.003Z,14.75
2023-05-05T19:16:08.504Z,14.59
2023-05-05T19:18:34.976Z,14.55
2023-05-05T19:21:01.685Z,14.44
2023-05-05T19:23:28.118Z,14.40
2023-05-05T19:25:54.568Z,14.34
2023-05-05T19:28:21.379Z,14.31
2023-05-05T19:30:48.655Z,14.25
2023-05-05T19:33:15.789Z,14.31
2023-05-05T19:35:42.436Z,14.35
2023-05-05T19:38:10.232Z,14.37
2023-05-05T19:40:39.958Z,14.33
2023-05-05T19:43:06.397Z,14.24
2023-05-05T19:45:33.739Z,14.25
2023-05-05T19:48:01.407Z,14.25
2023-05-05T19:50:29.740Z,14.18
2023-05-05T19:52:56.267Z,14.12
2023-05-05T19:55:22.834Z,14.13
2023-05-05T19:57:49.292Z,14.07
2023-05-05T20:00:16.185Z,14.01
2023-05-05T20:02:42.775Z,13.97
2023-05-05T20:05:11.413Z,13.94
2023-05-05T20:07:37.858Z,13.83
2023-05-05T20:10:04.620Z,13.74
2023-05-05T20:12:31.090Z,13.73
2023-05-05T20:14:57.503Z,13.67
2023-05-05T20:17:25.657Z,13.59
2023-05-05T20:19:52.292Z,13.53
2023-05-05T20:22:18.785Z,13.53
2023-05-05T20:24:45.210Z,13.54
2023-05-05T20:27:11.627Z,13.55
2023-05-05T20:29:38.064Z,13.38
2023-05-05T20:32:05.534Z,13.32
2023-05-05T20:34:31.968Z,13.25
2023-05-05T20:36:58.433Z,13.22
2023-05-05T20:39:25.031Z,13.19
2023-05-05T20:41:51.450Z,13.15
2023-05-05T20:44:17.927Z,13.19
2023-05-05T20:46:44.414Z,13.20
2023-05-05T20:49:10.876Z,13.18
2023-05-05T20:51:37.315Z,13.11
2023-05-05T20:54:04.041Z,13.05
2023-05-05T20:56:30.435Z,13.05
2023-05-05T20:58:56.899Z,12.99
2023-05-05T21:01:23.439Z,12.96
2023-05-05T21:03:49.870Z,12.97
2023-05-05T21:06:16.341Z,12.94
2023-05-05T21:08:42.789Z,12.92
2023-05-05T21:11:09.903Z,12.97
2023-05-05T21:13:36.416Z,12.95
2023-05-05T21:16:02.844Z,12.94
2023-05-05T21:18:29.252Z,12.99
2023-05-05T21:20:56.130Z,13.01
2023-05-05T21:23:22.565Z,12.79
2023-05-05T21:25:49.090Z,12.78
2023-05-05T21:28:15.923Z,12.78
2023-05-05T21:30:42.390Z,12.83
2023-05-05T21:33:08.949Z,12.84
2023-05-05T21:35:35.460Z,12.87
2023-05-05T21:38:01.895Z,12.91
2023-05-05T21:40:28.374Z,12.90
2023-05-05T21:42:54.847Z,12.92
2023-05-05T21:45:21.356Z,12.88
2023-05-05T21:47:47.867Z,12.86
2023-05-05T21:50:14.308Z,12.79
2023-05-05T21:52:41.358Z,12.82
2023-05-05T21:55:10.495Z,12.81
2023-05-05T21:57:36.926Z,12.83
2023-05-05T22:00:05.885Z,12.89
2023-05-05T22:02:38.916Z,12.89
2023-05-05T22:05:05.937Z,12.78
2023-05-05T22:07:33.014Z,12.76
2023-05-05T22:09:59.554Z,12.75
2023-05-05T22:12:25.985Z,12.73
2023-05-05T22:14:52.454Z,12.73
2023-05-05T22:17:18.952Z,12.77
2023-05-05T22:19:45.424Z,12.79
2023-05-05T22:22:11.904Z,12.76
2023-05-05T22:24:38.285Z,12.74
2023-05-05T22:27:04.685Z,12.78
2023-05-05T22:29:31.112Z,12.78
2023-05-05T22:31:57.545Z,12.74
2023-05-05T22:34:23.995Z,12.69
2023-05-05T22:36:50.380Z,12.58
2023-05-05T22:39:18.448Z,12.65
2023-05-05T22:41:44.959Z,12.58
2023-05-05T22:44:11.431Z,12.64
2023-05-05T22:46:37.843Z,12.63
2023-05-05T22:49:04.310Z,12.66
2023-05-05T22:51:31.722Z,12.67
2023-05-05T22:53:58.279Z,12.76
2023-05-05T22:56:24.801Z,12.80
2023-05-05T22:58:51.217Z,12.79
2023-05-05T23:01:17.727Z,12.58
2023-05-05T23:03:44.182Z,12.35
2023-05-05T23:06:10.609Z,12.40
2023-05-05T23:08:37.004Z,12.47
2023-05-05T23:11:03.548Z,12.52
2023-05-05T23:13:29.986Z,12.55
2023-05-05T23:15:56.384Z,12.54
2023-05-05T23:18:22.794Z,12.54
2023-05-05T23:20:49.200Z,12.58
2023-05-05T23:23:15.645Z,12.59
2023-05-05T23:25:42.077Z,12.56
2023-05-05T23:28:08.552Z,12.58
2023-05-05T23:30:35.028Z,12.62
2023-05-05T23:33:01.501Z,12.64
2023-05-05T23:35:28.152Z,12.66
2023-05-05T23:37:54.738Z,12.63
2023-05-05T23:40:21.251Z,12.67
2023-05-05T23:42:47.705Z,12.70
2023-05-05T23:45:14.153Z,12.69
2023-05-05T23:47:40.623Z,12.70
2023-05-05T23:50:07.782Z,12.66
2023-05-05T23:52:34.198Z,12.63
2023-05-05T23:55:00.653Z,12.62
2023-05-05T23:57:27.060Z,12.62
2023-05-05T23:59:53.472Z,12.65
